sensor_id;sensor_type;location;lat;lon;timestamp;temperature;humidity
6118;DHT22;3089;48.202;11.510;2023-07-29T00:00:52;18.70;99.90
6118;DHT22;3089;48.202;11.510;2023-07-29T00:03:22;18.70;99.90
6118;DHT22;3089;48.202;11.510;2023-07-29T00:05:50;18.60;99.90
6118;DHT22;3089;48.202;11.510;2023-07-29T00:08:18;18.60;99.90
6118;DHT22;3089;48.202;11.510;2023-07-29T00:10:47;18.60;99.90
6118;DHT22;3089;48.202;11.510;2023-07-29T00:13:15;18.60;99.90
6118;DHT22;3089;48.202;11.510;2023-07-29T00:15:46;18.60;99.90
6118;DHT22;3089;48.202;11.510;2023-07-29T00:18:14;18.60;99.90
6118;DHT22;3089;48.202;11.510;2023-07-29T00:20:42;18.50;99.90
6118;DHT22;3089;48.202;11.510;2023-07-29T00:23:10;18.50;99.90
6118;DHT22;3089;48.202;11.510;2023-07-29T00:25:37;18.50;99.90
6118;DHT22;3089;48.202;11.510;2023-07-29T00:28:07;18.40;99.90
6118;DHT22;3089;48.202;11.510;2023-07-29T00:30:35;18.40;99.90
6118;DHT22;3089;48.202;11.510;2023-07-29T00:33:03;18.40;99.90
6118;DHT22;3089;48.202;11.510;2023-07-29T00:35:31;18.30;99.90
6118;DHT22;3089;48.202;11.510;2023-07-29T00:37:58;18.30;99.90
6118;DHT22;3089;48.202;11.510;2023-07-29T00:40:28;18.30;99.90
6118;DHT22;3089;48.202;11.510;2023-07-29T00:42:56;18.30;99.90
6118;DHT22;3089;48.202;11.510;2023-07-29T00:45:27;18.30;99.90
6118;DHT22;3089;48.202;11.510;2023-07-29T00:47:56;18.30;99.90
6118;DHT22;3089;48.202;11.510;2023-07-29T00:50:25;18.30;99.90
6118;DHT22;3089;48.202;11.510;2023-07-29T00:52:54;18.30;99.90
6118;DHT22;3089;48.202;11.510;2023-07-29T00:55:22;18.30;99.90
6118;DHT22;3089;48.202;11.510;2023-07-29T00:57:51;18.30;99.90
6118;DHT22;3089;48.202;11.510;2023-07-29T01:00:21;18.20;99.90
6118;DHT22;3089;48.202;11.510;2023-07-29T01:02:52;18.20;99.90
6118;DHT22;3089;48.202;11.510;2023-07-29T01:05:22;18.20;99.90
6118;DHT22;3089;48.202;11.510;2023-07-29T01:07:56;18.20;99.90
6118;DHT22;3089;48.202;11.510;2023-07-29T01:10:32;18.20;99.90
6118;DHT22;3089;48.202;11.510;2023-07-29T01:13:08;18.20;99.90
6118;DHT22;3089;48.202;11.510;2023-07-29T01:15:43;18.20;99.90
6118;DHT22;3089;48.202;11.510;2023-07-29T01:18:18;18.10;99.90
6118;DHT22;3089;48.202;11.510;2023-07-29T01:20:51;18.10;99.90
6118;DHT22;3089;48.202;11.510;2023-07-29T01:23:25;18.10;99.90
6118;DHT22;3089;48.202;11.510;2023-07-29T01:25:52;18.00;99.90
6118;DHT22;3089;48.202;11.510;2023-07-29T01:28:20;18.00;99.90
6118;DHT22;3089;48.202;11.510;2023-07-29T01:30:51;18.00;99.90
6118;DHT22;3089;48.202;11.510;2023-07-29T01:33:26;18.00;99.90
6118;DHT22;3089;48.202;11.510;2023-07-29T01:35:58;17.90;99.90
6118;DHT22;3089;48.202;11.510;2023-07-29T01:38:32;17.90;99.90
6118;DHT22;3089;48.202;11.510;2023-07-29T01:41:02;17.90;99.90
6118;DHT22;3089;48.202;11.510;2023-07-29T01:43:31;17.90;99.90
6118;DHT22;3089;48.202;11.510;2023-07-29T01:46:00;17.90;99.90
6118;DHT22;3089;48.202;11.510;2023-07-29T01:48:28;17.90;99.90
6118;DHT22;3089;48.202;11.510;2023-07-29T01:50:57;17.80;99.90
6118;DHT22;3089;48.202;11.510;2023-07-29T01:53:25;17.80;99.90
6118;DHT22;3089;48.202;11.510;2023-07-29T01:55:54;17.80;99.90
6118;DHT22;3089;48.202;11.510;2023-07-29T01:58:23;17.80;99.90
6118;DHT22;3089;48.202;11.510;2023-07-29T02:00:51;17.80;99.90
6118;DHT22;3089;48.202;11.510;2023-07-29T02:03:19;17.80;99.90
6118;DHT22;3089;48.202;11.510;2023-07-29T02:05:47;17.80;99.90
6118;DHT22;3089;48.202;11.510;2023-07-29T02:08:15;17.80;99.90
6118;DHT22;3089;48.202;11.510;2023-07-29T02:10:43;17.80;99.90
6118;DHT22;3089;48.202;11.510;2023-07-29T02:13:13;17.70;99.90
6118;DHT22;3089;48.202;11.510;2023-07-29T02:15:41;17.70;99.90
6118;DHT22;3089;48.202;11.510;2023-07-29T02:18:09;17.70;99.90
6118;DHT22;3089;48.202;11.510;2023-07-29T02:20:37;17.70;99.90
6118;DHT22;3089;48.202;11.510;2023-07-29T02:23:05;17.60;99.90
6118;DHT22;3089;48.202;11.510;2023-07-29T02:25:35;17.70;99.90
6118;DHT22;3089;48.202;11.510;2023-07-29T02:28:03;17.60;99.90
6118;DHT22;3089;48.202;11.510;2023-07-29T02:30:32;17.60;99.90
6118;DHT22;3089;48.202;11.510;2023-07-29T02:33:00;17.60;99.90
6118;DHT22;3089;48.202;11.510;2023-07-29T02:35:28;17.60;99.90
6118;DHT22;3089;48.202;11.510;2023-07-29T02:37:56;17.60;99.90
6118;DHT22;3089;48.202;11.510;2023-07-29T02:40:24;17.60;99.90
6118;DHT22;3089;48.202;11.510;2023-07-29T02:42:53;17.50;99.90
6118;DHT22;3089;48.202;11.510;2023-07-29T02:45:21;17.50;99.90
6118;DHT22;3089;48.202;11.510;2023-07-29T02:47:50;17.50;99.90
6118;DHT22;3089;48.202;11.510;2023-07-29T02:50:20;17.40;99.90
6118;DHT22;3089;48.202;11.510;2023-07-29T02:52:48;17.40;99.90
6118;DHT22;3089;48.202;11.510;2023-07-29T02:55:17;17.40;99.90
6118;DHT22;3089;48.202;11.510;2023-07-29T02:57:45;17.40;99.90
6118;DHT22;3089;48.202;11.510;2023-07-29T03:00:13;17.40;99.90
6118;DHT22;3089;48.202;11.510;2023-07-29T03:02:41;17.30;99.90
6118;DHT22;3089;48.202;11.510;2023-07-29T03:05:11;17.30;99.90
6118;DHT22;3089;48.202;11.510;2023-07-29T03:07:39;17.30;99.90
6118;DHT22;3089;48.202;11.510;2023-07-29T03:10:07;17.30;99.90
6118;DHT22;3089;48.202;11.510;2023-07-29T03:12:35;17.30;99.90
6118;DHT22;3089;48.202;11.510;2023-07-29T03:15:04;17.30;99.90
6118;DHT22;3089;48.202;11.510;2023-07-29T03:17:32;17.30;99.90
6118;DHT22;3089;48.202;11.510;2023-07-29T03:20:00;17.20;99.90
6118;DHT22;3089;48.202;11.510;2023-07-29T03:22:29;17.20;99.90
6118;DHT22;3089;48.202;11.510;2023-07-29T03:24:57;17.30;99.90
6118;DHT22;3089;48.202;11.510;2023-07-29T03:27:24;17.30;99.90
6118;DHT22;3089;48.202;11.510;2023-07-29T03:29:52;17.30;99.90
6118;DHT22;3089;48.202;11.510;2023-07-29T03:32:20;17.30;99.90
6118;DHT22;3089;48.202;11.510;2023-07-29T03:34:48;17.30;99.90
6118;DHT22;3089;48.202;11.510;2023-07-29T03:37:16;17.30;99.90
6118;DHT22;3089;48.202;11.510;2023-07-29T03:39:45;17.30;99.90
6118;DHT22;3089;48.202;11.510;2023-07-29T03:42:13;17.40;99.90
6118;DHT22;3089;48.202;11.510;2023-07-29T03:44:41;17.40;99.90
6118;DHT22;3089;48.202;11.510;2023-07-29T03:47:09;17.40;99.90
6118;DHT22;3089;48.202;11.510;2023-07-29T03:49:37;17.40;99.90
6118;DHT22;3089;48.202;11.510;2023-07-29T03:52:05;17.40;99.90
6118;DHT22;3089;48.202;11.510;2023-07-29T03:54:33;17.40;99.90
6118;DHT22;3089;48.202;11.510;2023-07-29T03:57:03;17.40;99.90
6118;DHT22;3089;48.202;11.510;2023-07-29T03:59:31;17.30;99.90
6118;DHT22;3089;48.202;11.510;2023-07-29T04:01:59;17.30;99.90
6118;DHT22;3089;48.202;11.510;2023-07-29T04:04:26;17.20;99.90
6118;DHT22;3089;48.202;11.510;2023-07-29T04:06:54;17.10;99.90
6118;DHT22;3089;48.202;11.510;2023-07-29T04:09:22;17.10;99.90
6118;DHT22;3089;48.202;11.510;2023-07-29T04:11:51;17.20;99.90
6118;DHT22;3089;48.202;11.510;2023-07-29T04:14:20;17.30;99.90
6118;DHT22;3089;48.202;11.510;2023-07-29T04:16:48;17.30;99.90
6118;DHT22;3089;48.202;11.510;2023-07-29T04:19:16;17.10;99.90
6118;DHT22;3089;48.202;11.510;2023-07-29T04:21:44;17.10;99.90
6118;DHT22;3089;48.202;11.510;2023-07-29T04:24:12;17.20;99.90
6118;DHT22;3089;48.202;11.510;2023-07-29T04:26:40;17.30;99.90
6118;DHT22;3089;48.202;11.510;2023-07-29T04:29:08;17.20;99.90
6118;DHT22;3089;48.202;11.510;2023-07-29T04:31:37;17.20;99.90
6118;DHT22;3089;48.202;11.510;2023-07-29T04:34:05;17.20;99.90
6118;DHT22;3089;48.202;11.510;2023-07-29T04:36:33;17.30;99.90
6118;DHT22;3089;48.202;11.510;2023-07-29T04:39:02;17.30;99.90
6118;DHT22;3089;48.202;11.510;2023-07-29T04:41:30;17.30;99.90
6118;DHT22;3089;48.202;11.510;2023-07-29T04:43:58;17.30;99.90
6118;DHT22;3089;48.202;11.510;2023-07-29T04:46:25;17.40;99.90
6118;DHT22;3089;48.202;11.510;2023-07-29T04:48:55;17.40;99.90
6118;DHT22;3089;48.202;11.510;2023-07-29T04:51:23;17.60;99.90
6118;DHT22;3089;48.202;11.510;2023-07-29T04:53:51;18.30;99.90
6118;DHT22;3089;48.202;11.510;2023-07-29T04:56:19;19.00;99.90
6118;DHT22;3089;48.202;11.510;2023-07-29T04:58:47;19.80;99.90
6118;DHT22;3089;48.202;11.510;2023-07-29T05:01:15;19.90;99.90
6118;DHT22;3089;48.202;11.510;2023-07-29T05:03:43;20.00;99.90
6118;DHT22;3089;48.202;11.510;2023-07-29T05:06:12;20.40;99.90
6118;DHT22;3089;48.202;11.510;2023-07-29T05:08:40;20.50;99.90
6118;DHT22;3089;48.202;11.510;2023-07-29T05:11:08;20.50;99.90
6118;DHT22;3089;48.202;11.510;2023-07-29T05:13:36;20.60;99.90
6118;DHT22;3089;48.202;11.510;2023-07-29T05:16:04;20.60;99.90
6118;DHT22;3089;48.202;11.510;2023-07-29T05:18:32;20.30;99.90
6118;DHT22;3089;48.202;11.510;2023-07-29T05:21:00;20.50;99.90
6118;DHT22;3089;48.202;11.510;2023-07-29T05:23:29;19.10;99.90
6118;DHT22;3089;48.202;11.510;2023-07-29T05:25:57;19.10;99.90
6118;DHT22;3089;48.202;11.510;2023-07-29T05:28:25;18.90;99.90
6118;DHT22;3089;48.202;11.510;2023-07-29T05:30:53;19.50;99.90
6118;DHT22;3089;48.202;11.510;2023-07-29T05:33:21;20.10;99.90
6118;DHT22;3089;48.202;11.510;2023-07-29T05:35:49;21.00;99.90
6118;DHT22;3089;48.202;11.510;2023-07-29T05:38:16;21.00;99.90
6118;DHT22;3089;48.202;11.510;2023-07-29T05:40:47;19.60;99.90
6118;DHT22;3089;48.202;11.510;2023-07-29T05:43:15;19.00;99.90
6118;DHT22;3089;48.202;11.510;2023-07-29T05:45:43;18.70;99.90
6118;DHT22;3089;48.202;11.510;2023-07-29T05:48:11;18.60;99.90
6118;DHT22;3089;48.202;11.510;2023-07-29T05:50:39;18.50;99.90
6118;DHT22;3089;48.202;11.510;2023-07-29T05:53:07;18.50;99.90
6118;DHT22;3089;48.202;11.510;2023-07-29T05:55:35;18.50;99.90
6118;DHT22;3089;48.202;11.510;2023-07-29T05:58:04;18.40;99.90
6118;DHT22;3089;48.202;11.510;2023-07-29T06:00:32;18.40;99.90
6118;DHT22;3089;48.202;11.510;2023-07-29T06:03:00;18.40;99.90
6118;DHT22;3089;48.202;11.510;2023-07-29T06:05:28;18.30;99.90
6118;DHT22;3089;48.202;11.510;2023-07-29T06:07:56;18.30;99.90
6118;DHT22;3089;48.202;11.510;2023-07-29T06:10:24;18.30;99.90
6118;DHT22;3089;48.202;11.510;2023-07-29T06:12:52;18.30;99.90
6118;DHT22;3089;48.202;11.510;2023-07-29T06:15:21;18.40;99.90
6118;DHT22;3089;48.202;11.510;2023-07-29T06:17:49;18.30;99.90
6118;DHT22;3089;48.202;11.510;2023-07-29T06:20:20;18.30;99.90
6118;DHT22;3089;48.202;11.510;2023-07-29T06:22:48;18.40;99.90
6118;DHT22;3089;48.202;11.510;2023-07-29T06:25:15;18.60;99.90
6118;DHT22;3089;48.202;11.510;2023-07-29T06:27:43;18.90;99.90
6118;DHT22;3089;48.202;11.510;2023-07-29T06:30:11;19.20;99.90
6118;DHT22;3089;48.202;11.510;2023-07-29T06:32:40;19.00;99.90
6118;DHT22;3089;48.202;11.510;2023-07-29T06:35:08;18.80;99.90
6118;DHT22;3089;48.202;11.510;2023-07-29T06:37:36;18.70;99.90
6118;DHT22;3089;48.202;11.510;2023-07-29T06:40:05;18.80;99.90
6118;DHT22;3089;48.202;11.510;2023-07-29T06:42:33;18.80;99.90
6118;DHT22;3089;48.202;11.510;2023-07-29T06:45:01;19.10;99.90
6118;DHT22;3089;48.202;11.510;2023-07-29T06:47:29;19.10;99.90
6118;DHT22;3089;48.202;11.510;2023-07-29T06:49:58;18.90;99.90
6118;DHT22;3089;48.202;11.510;2023-07-29T06:52:26;18.60;99.90
6118;DHT22;3089;48.202;11.510;2023-07-29T06:54:54;18.50;99.90
6118;DHT22;3089;48.202;11.510;2023-07-29T06:57:22;18.40;99.90
6118;DHT22;3089;48.202;11.510;2023-07-29T06:59:50;18.40;99.90
6118;DHT22;3089;48.202;11.510;2023-07-29T07:02:17;18.30;99.90
6118;DHT22;3089;48.202;11.510;2023-07-29T07:04:45;18.30;99.90
6118;DHT22;3089;48.202;11.510;2023-07-29T07:07:15;18.20;99.90
6118;DHT22;3089;48.202;11.510;2023-07-29T07:09:43;18.20;99.90
6118;DHT22;3089;48.202;11.510;2023-07-29T07:12:11;18.30;99.90
6118;DHT22;3089;48.202;11.510;2023-07-29T07:14:39;18.30;99.90
6118;DHT22;3089;48.202;11.510;2023-07-29T07:17:07;18.30;99.90
6118;DHT22;3089;48.202;11.510;2023-07-29T07:19:39;18.30;99.90
6118;DHT22;3089;48.202;11.510;2023-07-29T07:22:07;18.40;99.90
6118;DHT22;3089;48.202;11.510;2023-07-29T07:24:36;18.40;99.90
6118;DHT22;3089;48.202;11.510;2023-07-29T07:27:04;18.40;99.90
6118;DHT22;3089;48.202;11.510;2023-07-29T07:29:32;18.50;99.90
6118;DHT22;3089;48.202;11.510;2023-07-29T07:32:00;18.40;99.90
6118;DHT22;3089;48.202;11.510;2023-07-29T07:34:28;18.20;99.90
6118;DHT22;3089;48.202;11.510;2023-07-29T07:36:56;18.30;99.90
6118;DHT22;3089;48.202;11.510;2023-07-29T07:39:24;18.30;99.90
6118;DHT22;3089;48.202;11.510;2023-07-29T07:41:53;18.30;99.90
6118;DHT22;3089;48.202;11.510;2023-07-29T07:44:21;18.40;99.90
6118;DHT22;3089;48.202;11.510;2023-07-29T07:46:49;18.40;99.90
6118;DHT22;3089;48.202;11.510;2023-07-29T07:49:17;18.50;99.90
6118;DHT22;3089;48.202;11.510;2023-07-29T07:51:45;18.60;99.90
6118;DHT22;3089;48.202;11.510;2023-07-29T07:54:13;18.60;99.90
6118;DHT22;3089;48.202;11.510;2023-07-29T07:56:41;18.70;99.90
6118;DHT22;3089;48.202;11.510;2023-07-29T07:59:11;18.70;99.90
6118;DHT22;3089;48.202;11.510;2023-07-29T08:01:42;18.70;99.90
6118;DHT22;3089;48.202;11.510;2023-07-29T08:04:10;18.70;99.90
6118;DHT22;3089;48.202;11.510;2023-07-29T08:06:38;18.70;99.90
6118;DHT22;3089;48.202;11.510;2023-07-29T08:09:06;18.80;99.90
6118;DHT22;3089;48.202;11.510;2023-07-29T08:11:34;18.80;99.90
6118;DHT22;3089;48.202;11.510;2023-07-29T08:14:02;18.80;99.90
6118;DHT22;3089;48.202;11.510;2023-07-29T08:16:31;18.90;99.90
6118;DHT22;3089;48.202;11.510;2023-07-29T08:18:59;18.90;99.90
6118;DHT22;3089;48.202;11.510;2023-07-29T08:21:27;18.90;99.90
6118;DHT22;3089;48.202;11.510;2023-07-29T08:23:55;18.90;99.90
6118;DHT22;3089;48.202;11.510;2023-07-29T08:26:23;19.00;99.90
6118;DHT22;3089;48.202;11.510;2023-07-29T08:28:51;19.10;99.90
6118;DHT22;3089;48.202;11.510;2023-07-29T08:31:21;19.20;99.90
6118;DHT22;3089;48.202;11.510;2023-07-29T08:33:50;19.20;99.90
6118;DHT22;3089;48.202;11.510;2023-07-29T08:36:18;19.20;99.90
6118;DHT22;3089;48.202;11.510;2023-07-29T08:38:46;19.10;99.90
6118;DHT22;3089;48.202;11.510;2023-07-29T08:41:16;19.20;99.90
6118;DHT22;3089;48.202;11.510;2023-07-29T08:43:56;19.20;99.90
6118;DHT22;3089;48.202;11.510;2023-07-29T08:46:26;19.20;99.90
6118;DHT22;3089;48.202;11.510;2023-07-29T08:48:55;19.20;99.90
6118;DHT22;3089;48.202;11.510;2023-07-29T08:51:24;19.20;99.90
6118;DHT22;3089;48.202;11.510;2023-07-29T08:53:52;19.30;99.90
6118;DHT22;3089;48.202;11.510;2023-07-29T08:56:20;19.30;99.90
6118;DHT22;3089;48.202;11.510;2023-07-29T08:58:48;19.50;99.90
6118;DHT22;3089;48.202;11.510;2023-07-29T09:01:17;19.60;99.90
6118;DHT22;3089;48.202;11.510;2023-07-29T09:03:45;19.70;99.90
6118;DHT22;3089;48.202;11.510;2023-07-29T09:06:15;19.80;99.90
6118;DHT22;3089;48.202;11.510;2023-07-29T09:08:44;19.90;99.90
6118;DHT22;3089;48.202;11.510;2023-07-29T09:11:14;19.90;99.90
6118;DHT22;3089;48.202;11.510;2023-07-29T09:13:43;20.10;99.90
6118;DHT22;3089;48.202;11.510;2023-07-29T09:16:12;20.40;99.90
6118;DHT22;3089;48.202;11.510;2023-07-29T09:18:40;20.80;99.90
6118;DHT22;3089;48.202;11.510;2023-07-29T09:21:08;21.30;99.90
6118;DHT22;3089;48.202;11.510;2023-07-29T09:23:41;21.20;99.90
6118;DHT22;3089;48.202;11.510;2023-07-29T09:26:10;21.00;99.90
6118;DHT22;3089;48.202;11.510;2023-07-29T09:28:39;20.80;99.90
6118;DHT22;3089;48.202;11.510;2023-07-29T09:31:19;21.50;99.90
6118;DHT22;3089;48.202;11.510;2023-07-29T09:33:47;22.20;99.90
6118;DHT22;3089;48.202;11.510;2023-07-29T09:36:15;22.10;99.90
6118;DHT22;3089;48.202;11.510;2023-07-29T09:38:45;21.70;99.90
6118;DHT22;3089;48.202;11.510;2023-07-29T09:41:15;21.60;99.90
6118;DHT22;3089;48.202;11.510;2023-07-29T09:43:43;22.30;99.90
6118;DHT22;3089;48.202;11.510;2023-07-29T09:46:11;22.30;99.90
6118;DHT22;3089;48.202;11.510;2023-07-29T09:48:41;22.40;99.90
6118;DHT22;3089;48.202;11.510;2023-07-29T09:51:13;22.20;99.90
6118;DHT22;3089;48.202;11.510;2023-07-29T09:53:42;22.60;99.90
6118;DHT22;3089;48.202;11.510;2023-07-29T09:56:15;23.10;99.90
6118;DHT22;3089;48.202;11.510;2023-07-29T09:58:44;23.80;99.90
6118;DHT22;3089;48.202;11.510;2023-07-29T10:01:12;23.80;99.90
6118;DHT22;3089;48.202;11.510;2023-07-29T10:03:40;23.30;99.90
6118;DHT22;3089;48.202;11.510;2023-07-29T10:06:08;23.40;99.90
6118;DHT22;3089;48.202;11.510;2023-07-29T10:08:42;23.70;99.90
6118;DHT22;3089;48.202;11.510;2023-07-29T10:11:11;23.70;99.90
6118;DHT22;3089;48.202;11.510;2023-07-29T10:13:40;23.80;99.90
6118;DHT22;3089;48.202;11.510;2023-07-29T10:16:18;24.40;99.90
6118;DHT22;3089;48.202;11.510;2023-07-29T10:18:46;24.80;99.90
6118;DHT22;3089;48.202;11.510;2023-07-29T10:21:15;24.50;99.90
6118;DHT22;3089;48.202;11.510;2023-07-29T10:23:47;24.50;99.90
6118;DHT22;3089;48.202;11.510;2023-07-29T10:26:19;24.10;99.90
6118;DHT22;3089;48.202;11.510;2023-07-29T10:28:52;24.10;99.90
6118;DHT22;3089;48.202;11.510;2023-07-29T10:31:22;24.20;99.90
6118;DHT22;3089;48.202;11.510;2023-07-29T10:33:52;24.30;99.90
6118;DHT22;3089;48.202;11.510;2023-07-29T10:36:21;24.30;99.90
6118;DHT22;3089;48.202;11.510;2023-07-29T10:38:49;24.40;99.90
6118;DHT22;3089;48.202;11.510;2023-07-29T10:41:17;24.30;99.90
6118;DHT22;3089;48.202;11.510;2023-07-29T10:43:45;24.40;99.90
6118;DHT22;3089;48.202;11.510;2023-07-29T10:46:18;24.50;99.90
6118;DHT22;3089;48.202;11.510;2023-07-29T10:48:54;24.40;99.90
6118;DHT22;3089;48.202;11.510;2023-07-29T10:51:26;23.90;99.90
6118;DHT22;3089;48.202;11.510;2023-07-29T10:53:57;23.40;99.90
6118;DHT22;3089;48.202;11.510;2023-07-29T10:56:30;23.10;99.90
6118;DHT22;3089;48.202;11.510;2023-07-29T10:59:31;23.00;99.90
6118;DHT22;3089;48.202;11.510;2023-07-29T11:02:01;23.00;99.90
6118;DHT22;3089;48.202;11.510;2023-07-29T11:04:30;22.80;99.90
6118;DHT22;3089;48.202;11.510;2023-07-29T11:07:28;22.70;99.90
6118;DHT22;3089;48.202;11.510;2023-07-29T11:10:00;22.60;99.90
6118;DHT22;3089;48.202;11.510;2023-07-29T11:12:36;22.20;99.90
6118;DHT22;3089;48.202;11.510;2023-07-29T11:15:12;22.00;99.90
6118;DHT22;3089;48.202;11.510;2023-07-29T11:17:43;22.50;99.90
6118;DHT22;3089;48.202;11.510;2023-07-29T11:20:12;22.40;99.90
6118;DHT22;3089;48.202;11.510;2023-07-29T11:22:44;22.60;99.90
6118;DHT22;3089;48.202;11.510;2023-07-29T11:25:13;22.80;99.90
6118;DHT22;3089;48.202;11.510;2023-07-29T11:27:41;22.80;99.90
6118;DHT22;3089;48.202;11.510;2023-07-29T11:30:11;22.70;99.90
6118;DHT22;3089;48.202;11.510;2023-07-29T11:32:41;22.10;99.90
6118;DHT22;3089;48.202;11.510;2023-07-29T11:35:11;22.50;99.90
6118;DHT22;3089;48.202;11.510;2023-07-29T11:37:44;22.90;99.90
6118;DHT22;3089;48.202;11.510;2023-07-29T11:40:14;23.10;99.90
6118;DHT22;3089;48.202;11.510;2023-07-29T11:42:42;23.40;99.90
6118;DHT22;3089;48.202;11.510;2023-07-29T11:45:10;23.40;99.90
6118;DHT22;3089;48.202;11.510;2023-07-29T11:47:42;23.80;99.90
6118;DHT22;3089;48.202;11.510;2023-07-29T11:50:12;23.80;99.90
6118;DHT22;3089;48.202;11.510;2023-07-29T11:52:42;23.60;99.90
6118;DHT22;3089;48.202;11.510;2023-07-29T11:55:12;23.90;99.90
6118;DHT22;3089;48.202;11.510;2023-07-29T11:57:41;24.10;99.90
6118;DHT22;3089;48.202;11.510;2023-07-29T12:00:11;24.10;99.90
6118;DHT22;3089;48.202;11.510;2023-07-29T12:02:42;23.90;99.90
6118;DHT22;3089;48.202;11.510;2023-07-29T12:05:13;24.10;99.90
6118;DHT22;3089;48.202;11.510;2023-07-29T12:07:42;24.30;99.90
6118;DHT22;3089;48.202;11.510;2023-07-29T12:10:10;24.40;99.90
6118;DHT22;3089;48.202;11.510;2023-07-29T12:12:44;24.30;99.90
6118;DHT22;3089;48.202;11.510;2023-07-29T12:15:13;24.40;99.90
6118;DHT22;3089;48.202;11.510;2023-07-29T12:17:42;24.50;99.90
6118;DHT22;3089;48.202;11.510;2023-07-29T12:20:11;24.50;99.90
6118;DHT22;3089;48.202;11.510;2023-07-29T12:22:39;24.20;99.90
6118;DHT22;3089;48.202;11.510;2023-07-29T12:25:08;24.00;99.90
6118;DHT22;3089;48.202;11.510;2023-07-29T12:27:36;23.80;99.90
6118;DHT22;3089;48.202;11.510;2023-07-29T12:30:06;23.60;99.90
6118;DHT22;3089;48.202;11.510;2023-07-29T12:32:44;23.60;99.90
6118;DHT22;3089;48.202;11.510;2023-07-29T12:35:13;23.40;99.90
6118;DHT22;3089;48.202;11.510;2023-07-29T12:37:40;23.40;99.90
6118;DHT22;3089;48.202;11.510;2023-07-29T12:40:21;23.10;99.90
6118;DHT22;3089;48.202;11.510;2023-07-29T12:42:50;22.80;99.90
6118;DHT22;3089;48.202;11.510;2023-07-29T12:45:18;22.60;99.90
6118;DHT22;3089;48.202;11.510;2023-07-29T12:47:50;22.20;99.90
6118;DHT22;3089;48.202;11.510;2023-07-29T12:50:18;22.20;99.90
6118;DHT22;3089;48.202;11.510;2023-07-29T12:52:46;20.00;99.90
6118;DHT22;3089;48.202;11.510;2023-07-29T12:55:14;19.50;99.90
6118;DHT22;3089;48.202;11.510;2023-07-29T12:57:45;20.10;99.90
6118;DHT22;3089;48.202;11.510;2023-07-29T13:00:13;20.30;99.90
6118;DHT22;3089;48.202;11.510;2023-07-29T13:02:41;20.60;99.90
6118;DHT22;3089;48.202;11.510;2023-07-29T13:05:11;20.90;99.90
6118;DHT22;3089;48.202;11.510;2023-07-29T13:07:39;20.90;99.90
6118;DHT22;3089;48.202;11.510;2023-07-29T13:10:09;20.90;99.90
6118;DHT22;3089;48.202;11.510;2023-07-29T13:12:37;21.00;99.90
6118;DHT22;3089;48.202;11.510;2023-07-29T13:15:06;20.90;99.90
6118;DHT22;3089;48.202;11.510;2023-07-29T13:17:34;20.90;99.90
6118;DHT22;3089;48.202;11.510;2023-07-29T13:20:05;20.70;99.90
6118;DHT22;3089;48.202;11.510;2023-07-29T13:22:35;21.00;99.90
6118;DHT22;3089;48.202;11.510;2023-07-29T13:25:03;21.00;99.90
6118;DHT22;3089;48.202;11.510;2023-07-29T13:27:31;21.20;99.90
6118;DHT22;3089;48.202;11.510;2023-07-29T13:29:59;21.40;99.90
6118;DHT22;3089;48.202;11.510;2023-07-29T13:32:27;21.50;99.90
6118;DHT22;3089;48.202;11.510;2023-07-29T13:34:55;21.50;99.90
6118;DHT22;3089;48.202;11.510;2023-07-29T13:37:23;21.50;99.90
6118;DHT22;3089;48.202;11.510;2023-07-29T13:39:52;21.50;99.90
6118;DHT22;3089;48.202;11.510;2023-07-29T13:42:20;21.40;99.90
6118;DHT22;3089;48.202;11.510;2023-07-29T13:44:48;21.30;99.90
6118;DHT22;3089;48.202;11.510;2023-07-29T13:47:15;21.10;99.90
6118;DHT22;3089;48.202;11.510;2023-07-29T13:49:43;21.10;99.90
6118;DHT22;3089;48.202;11.510;2023-07-29T13:52:12;21.20;99.90
6118;DHT22;3089;48.202;11.510;2023-07-29T13:54:40;21.40;99.90
6118;DHT22;3089;48.202;11.510;2023-07-29T13:57:09;21.40;99.90
6118;DHT22;3089;48.202;11.510;2023-07-29T13:59:37;21.40;99.90
6118;DHT22;3089;48.202;11.510;2023-07-29T14:02:05;21.40;99.90
6118;DHT22;3089;48.202;11.510;2023-07-29T14:04:33;21.30;99.90
6118;DHT22;3089;48.202;11.510;2023-07-29T14:07:02;21.30;99.90
6118;DHT22;3089;48.202;11.510;2023-07-29T14:09:30;21.30;99.90
6118;DHT22;3089;48.202;11.510;2023-07-29T14:11:58;21.30;99.90
6118;DHT22;3089;48.202;11.510;2023-07-29T14:14:27;21.30;99.90
6118;DHT22;3089;48.202;11.510;2023-07-29T14:16:55;21.30;99.90
6118;DHT22;3089;48.202;11.510;2023-07-29T14:19:23;21.30;99.90
6118;DHT22;3089;48.202;11.510;2023-07-29T14:21:51;21.30;99.90
6118;DHT22;3089;48.202;11.510;2023-07-29T14:24:18;21.30;99.90
6118;DHT22;3089;48.202;11.510;2023-07-29T14:26:47;21.30;99.90
6118;DHT22;3089;48.202;11.510;2023-07-29T14:29:15;21.10;99.90
6118;DHT22;3089;48.202;11.510;2023-07-29T14:31:44;21.00;99.90
6118;DHT22;3089;48.202;11.510;2023-07-29T14:34:12;21.00;99.90
6118;DHT22;3089;48.202;11.510;2023-07-29T14:36:40;20.70;99.90
6118;DHT22;3089;48.202;11.510;2023-07-29T14:39:08;20.70;99.90
6118;DHT22;3089;48.202;11.510;2023-07-29T14:41:36;20.80;99.90
6118;DHT22;3089;48.202;11.510;2023-07-29T14:44:04;20.90;99.90
6118;DHT22;3089;48.202;11.510;2023-07-29T14:46:31;20.80;99.90
6118;DHT22;3089;48.202;11.510;2023-07-29T14:49:01;20.80;99.90
6118;DHT22;3089;48.202;11.510;2023-07-29T14:51:29;20.80;99.90
6118;DHT22;3089;48.202;11.510;2023-07-29T14:53:57;20.80;99.90
6118;DHT22;3089;48.202;11.510;2023-07-29T14:56:25;20.80;99.90
6118;DHT22;3089;48.202;11.510;2023-07-29T14:58:53;20.80;99.90
6118;DHT22;3089;48.202;11.510;2023-07-29T15:01:20;20.80;99.90
6118;DHT22;3089;48.202;11.510;2023-07-29T15:03:49;20.80;99.90
6118;DHT22;3089;48.202;11.510;2023-07-29T15:06:18;20.70;99.90
6118;DHT22;3089;48.202;11.510;2023-07-29T15:08:46;20.70;99.90
6118;DHT22;3089;48.202;11.510;2023-07-29T15:11:14;20.60;99.90
6118;DHT22;3089;48.202;11.510;2023-07-29T15:13:41;20.60;99.90
6118;DHT22;3089;48.202;11.510;2023-07-29T15:16:09;20.60;99.90
6118;DHT22;3089;48.202;11.510;2023-07-29T15:18:37;20.50;99.90
6118;DHT22;3089;48.202;11.510;2023-07-29T15:21:05;20.60;99.90
6118;DHT22;3089;48.202;11.510;2023-07-29T15:23:34;20.50;99.90
6118;DHT22;3089;48.202;11.510;2023-07-29T15:26:02;20.50;99.90
6118;DHT22;3089;48.202;11.510;2023-07-29T15:28:30;20.60;99.90
6118;DHT22;3089;48.202;11.510;2023-07-29T15:30:58;20.60;99.90
6118;DHT22;3089;48.202;11.510;2023-07-29T15:33:26;20.60;99.90
6118;DHT22;3089;48.202;11.510;2023-07-29T15:35:54;20.50;99.90
6118;DHT22;3089;48.202;11.510;2023-07-29T15:38:22;20.40;99.90
6118;DHT22;3089;48.202;11.510;2023-07-29T15:40:51;20.30;99.90
6118;DHT22;3089;48.202;11.510;2023-07-29T15:43:19;19.90;99.90
6118;DHT22;3089;48.202;11.510;2023-07-29T15:45:46;20.00;99.90
6118;DHT22;3089;48.202;11.510;2023-07-29T15:48:14;20.10;99.90
6118;DHT22;3089;48.202;11.510;2023-07-29T15:50:42;20.30;99.90
6118;DHT22;3089;48.202;11.510;2023-07-29T15:53:10;20.30;99.90
6118;DHT22;3089;48.202;11.510;2023-07-29T15:55:38;20.40;99.90